Time;durP1;ratioP1;P1;durP2;ratioP2;P2;SDS_P1;SDS_P2;PMS_P1;PMS_P2;Temp;Humidity;BMP_temperature;BMP_pressure;BME280_temperature;BME280_humidity;BME280_pressure;Samples;Min_cycle;Max_cycle;Signal;HPM_P1;HPM_P2
2021/03/23 00:01:12;;;;;;;10.60;6.68;;;1.30;99.90;;;;;;5094640;28;20255;-67
2021/03/23 00:03:41;;;;;;;13.75;6.60;;;1.30;99.90;;;;;;5092976;28;20607;-67
2021/03/23 00:06:08;;;;;;;9.50;6.00;;;1.30;99.90;;;;;;5094529;28;20231;-67
2021/03/23 00:08:40;;;;;;;9.55;5.78;;;1.30;99.90;;;;;;5092976;28;20196;-67
2021/03/23 00:11:14;;;;;;;7.97;5.10;;;1.30;99.90;;;;;;5093104;28;20172;-68
2021/03/23 00:13:41;;;;;;;8.13;5.90;;;1.20;99.90;;;;;;5092940;28;20685;-67
2021/03/23 00:16:07;;;;;;;8.95;4.75;;;1.30;99.90;;;;;;5094389;28;20244;-68
2021/03/23 00:18:33;;;;;;;6.35;4.90;;;1.30;99.90;;;;;;5094110;28;20206;-67
2021/03/23 00:20:59;;;;;;;8.37;5.80;;;1.30;99.90;;;;;;5094065;28;20252;-69
2021/03/23 00:23:25;;;;;;;8.55;5.85;;;1.30;99.90;;;;;;5092777;28;20247;-67
2021/03/23 00:25:51;;;;;;;7.30;5.53;;;1.40;99.90;;;;;;5093643;28;20235;-69
2021/03/23 00:28:17;;;;;;;6.60;5.00;;;1.40;99.90;;;;;;5094009;28;20421;-68
2021/03/23 00:30:42;;;;;;;8.48;5.05;;;1.40;99.90;;;;;;5094131;28;20168;-67
2021/03/23 00:33:08;;;;;;;10.27;5.67;;;1.30;99.90;;;;;;5092686;28;20732;-69
2021/03/23 00:35:34;;;;;;;8.30;5.20;;;1.30;99.90;;;;;;5093912;28;20183;-67
2021/03/23 00:38:03;;;;;;;8.70;5.77;;;1.30;99.90;;;;;;5093824;28;20201;-68
2021/03/23 00:40:34;;;;;;;7.55;5.43;;;1.30;99.90;;;;;;5093917;28;20176;-67
2021/03/23 00:43:02;;;;;;;6.90;5.60;;;1.40;99.90;;;;;;5093667;28;20220;-67
2021/03/23 00:45:29;;;;;;;6.63;4.70;;;1.40;99.90;;;;;;5093848;28;20300;-67
2021/03/23 00:47:54;;;;;;;9.57;6.28;;;1.40;99.90;;;;;;5093790;28;20192;-68
2021/03/23 00:50:20;;;;;;;6.90;5.20;;;1.40;99.90;;;;;;5093833;28;20225;-68
2021/03/23 00:52:46;;;;;;;7.80;5.60;;;1.40;99.90;;;;;;5093583;28;20184;-68
2021/03/23 00:55:12;;;;;;;6.65;5.20;;;1.40;99.90;;;;;;5093688;28;20234;-67
2021/03/23 00:57:38;;;;;;;8.23;5.72;;;1.50;99.90;;;;;;5093642;28;20230;-69
2021/03/23 01:00:10;;;;;;;6.83;5.60;;;1.40;99.90;;;;;;5092486;28;20177;-69
2021/03/23 01:02:36;;;;;;;8.13;5.57;;;1.50;99.90;;;;;;5093618;28;20252;-68
2021/03/23 01:05:03;;;;;;;8.70;5.37;;;1.50;99.90;;;;;;5092361;28;20651;-67
2021/03/23 01:07:29;;;;;;;7.22;4.97;;;1.50;99.90;;;;;;5093501;28;20413;-68
2021/03/23 01:09:55;;;;;;;9.70;6.13;;;1.50;99.90;;;;;;5092239;28;20180;-68
2021/03/23 01:12:20;;;;;;;13.90;6.63;;;1.50;99.90;;;;;;5094045;28;20169;-67
2021/03/23 01:14:46;;;;;;;6.47;4.93;;;1.40;99.90;;;;;;5093443;28;20216;-67
2021/03/23 01:17:11;;;;;;;8.00;5.80;;;1.40;99.90;;;;;;5094068;28;20634;-68
2021/03/23 01:19:37;;;;;;;7.13;4.93;;;1.40;99.90;;;;;;5093507;28;20227;-68
2021/03/23 01:22:03;;;;;;;7.13;5.60;;;1.40;99.90;;;;;;5093990;28;20176;-68
2021/03/23 01:24:29;;;;;;;9.95;6.40;;;1.40;99.90;;;;;;5093258;28;20204;-66
2021/03/23 01:26:54;;;;;;;9.10;6.87;;;1.40;99.90;;;;;;5093868;28;20172;-67
2021/03/23 01:29:20;;;;;;;9.27;6.10;;;1.30;99.90;;;;;;5093327;28;20196;-68
2021/03/23 01:31:45;;;;;;;10.33;6.10;;;1.30;99.90;;;;;;5093693;28;20173;-69
2021/03/23 01:34:11;;;;;;;9.60;5.70;;;1.30;99.90;;;;;;5092070;28;20291;-66
2021/03/23 01:36:37;;;;;;;10.13;6.93;;;1.20;99.90;;;;;;5094546;28;20179;-67
2021/03/23 01:39:04;;;;;;;11.47;7.10;;;1.10;99.90;;;;;;5097130;28;20197;-67
2021/03/23 01:41:30;;;;;;;10.43;7.05;;;1.10;99.90;;;;;;5097362;28;20375;-67
2021/03/23 01:43:56;;;;;;;9.68;7.30;;;0.90;99.90;;;;;;5095599;28;20239;-67
2021/03/23 01:46:42;;;;;;;10.03;6.67;;;0.90;99.90;;;;;;5097169;28;20223;-67
2021/03/23 01:49:11;;;;;;;15.50;6.68;;;0.80;99.90;;;;;;5096873;28;20188;-67
2021/03/23 01:51:36;;;;;;;8.00;7.05;;;0.70;99.90;;;;;;5097277;28;20285;-66
2021/03/23 01:54:15;;;;;;;7.83;6.30;;;0.70;99.90;;;;;;5095641;28;20284;-67
2021/03/23 01:56:43;;;;;;;7.40;6.18;;;0.70;99.90;;;;;;5097245;28;20255;-68
2021/03/23 01:59:09;;;;;;;9.23;5.93;;;0.80;99.90;;;;;;5096728;28;20197;-68
2021/03/23 02:01:36;;;;;;;9.40;6.45;;;0.70;99.90;;;;;;5097175;28;20604;-67
2021/03/23 02:04:03;;;;;;;8.85;6.30;;;0.70;99.90;;;;;;5096652;28;20283;-68
2021/03/23 02:06:44;;;;;;;8.63;7.10;;;0.60;99.90;;;;;;5096921;28;20212;-67
2021/03/23 02:09:20;;;;;;;10.88;7.72;;;0.60;99.90;;;;;;5096506;28;20208;-66
2021/03/23 02:11:50;;;;;;;10.93;7.80;;;0.50;99.90;;;;;;5095416;28;20188;-67
2021/03/23 02:14:18;;;;;;;7.70;6.90;;;0.50;99.90;;;;;;5096462;28;20286;-69
2021/03/23 02:16:44;;;;;;;11.82;8.00;;;0.50;99.90;;;;;;5096761;28;20180;-67
2021/03/23 02:19:12;;;;;;;15.23;8.60;;;0.40;99.90;;;;;;5096342;28;20274;-68
2021/03/23 02:21:38;;;;;;;9.32;8.27;;;0.40;99.90;;;;;;5096644;28;20630;-66
2021/03/23 02:24:04;;;;;;;13.33;9.57;;;0.40;99.90;;;;;;5094976;28;20204;-68
2021/03/23 02:26:33;;;;;;;12.15;8.75;;;0.40;99.90;;;;;;5094858;28;20769;-67
2021/03/23 02:29:01;;;;;;;12.30;8.48;;;0.40;99.90;;;;;;5096145;28;20556;-67
2021/03/23 02:31:34;;;;;;;11.65;9.00;;;0.40;99.90;;;;;;5095045;28;20249;-67
2021/03/23 02:34:00;;;;;;;12.80;8.57;;;0.30;99.90;;;;;;5094818;28;20274;-67
2021/03/23 02:36:28;;;;;;;11.38;8.68;;;0.30;99.90;;;;;;5096359;28;20200;-68
2021/03/23 02:38:54;;;;;;;13.45;9.30;;;0.30;99.90;;;;;;5095940;28;20677;-69
2021/03/23 02:41:21;;;;;;;10.43;8.13;;;0.30;99.90;;;;;;5094700;28;20188;-68
2021/03/23 02:43:47;;;;;;;15.43;8.95;;;0.30;99.90;;;;;;5095602;28;20563;-67
2021/03/23 02:46:13;;;;;;;12.13;8.37;;;0.30;99.90;;;;;;5094643;28;20228;-66
2021/03/23 02:48:39;;;;;;;10.15;7.90;;;0.30;99.90;;;;;;5095388;28;20189;-69
2021/03/23 02:51:05;;;;;;;12.03;8.40;;;0.20;99.90;;;;;;5096075;28;20179;-68
2021/03/23 02:53:31;;;;;;;9.35;8.25;;;0.20;99.90;;;;;;5095623;28;20188;-67
2021/03/23 02:55:56;;;;;;;11.60;8.30;;;0.10;99.90;;;;;;5095506;28;20233;-68
2021/03/23 02:58:22;;;;;;;14.33;9.23;;;0.10;99.90;;;;;;5095586;28;20215;-67
2021/03/23 03:00:48;;;;;;;11.80;9.00;;;0.10;99.90;;;;;;5095710;28;20309;-67
2021/03/23 03:03:13;;;;;;;10.73;8.60;;;0.10;99.90;;;;;;5095534;28;20759;-67
2021/03/23 03:05:39;;;;;;;11.60;8.13;;;0.10;99.90;;;;;;5095505;28;20573;-67
2021/03/23 03:08:05;;;;;;;10.00;8.20;;;0.20;99.90;;;;;;5095481;28;20421;-66
2021/03/23 03:10:31;;;;;;;11.47;7.87;;;0.20;99.90;;;;;;5095462;28;20201;-69
2021/03/23 03:12:58;;;;;;;10.77;8.27;;;0.10;99.90;;;;;;5094286;28;20485;-69
2021/03/23 03:15:24;;;;;;;11.55;8.55;;;0.10;99.90;;;;;;5095361;28;20431;-68
2021/03/23 03:17:50;;;;;;;11.85;8.93;;;0.10;99.90;;;;;;5095176;28;20192;-66
2021/03/23 03:20:17;;;;;;;10.95;7.60;;;0.10;99.90;;;;;;5095158;28;20179;-66
2021/03/23 03:22:43;;;;;;;11.20;8.35;;;0.10;99.90;;;;;;5093861;28;20267;-68
2021/03/23 03:25:11;;;;;;;11.10;9.05;;;0.10;99.90;;;;;;5093748;28;20647;-67
2021/03/23 03:27:36;;;;;;;11.27;7.57;;;0.10;99.90;;;;;;5094982;28;20558;-68
2021/03/23 03:30:07;;;;;;;12.63;8.20;;;0.20;99.90;;;;;;5095075;28;20172;-68
2021/03/23 03:32:33;;;;;;;14.60;9.45;;;0.20;99.90;;;;;;5094998;28;20903;-67
2021/03/23 03:34:58;;;;;;;14.17;9.20;;;0.20;99.90;;;;;;5094953;28;20165;-68
2021/03/23 03:37:24;;;;;;;12.23;8.23;;;0.20;99.90;;;;;;5095407;28;20176;-66
2021/03/23 03:39:49;;;;;;;11.13;8.10;;;0.30;99.90;;;;;;5093387;28;20672;-67
2021/03/23 03:42:15;;;;;;;12.27;8.80;;;0.30;99.90;;;;;;5095324;28;20168;-68
2021/03/23 03:44:41;;;;;;;10.80;8.27;;;0.30;99.90;;;;;;5094606;28;20224;-67
2021/03/23 03:47:06;;;;;;;13.63;8.40;;;0.30;99.90;;;;;;5095220;28;20237;-68
2021/03/23 03:49:32;;;;;;;12.90;9.33;;;0.30;99.90;;;;;;5094644;28;20322;-66
2021/03/23 03:51:57;;;;;;;15.93;8.40;;;0.30;99.90;;;;;;5094986;28;20176;-67
2021/03/23 03:54:23;;;;;;;13.20;9.20;;;0.30;99.90;;;;;;5094559;28;20196;-67
2021/03/23 03:56:49;;;;;;;14.50;9.27;;;0.30;99.90;;;;;;5094907;28;20269;-68
2021/03/23 03:59:14;;;;;;;13.90;8.90;;;0.20;99.90;;;;;;5092588;28;20214;-67
2021/03/23 04:01:40;;;;;;;12.13;9.10;;;0.20;99.90;;;;;;5094684;28;20164;-68
2021/03/23 04:04:05;;;;;;;13.90;8.70;;;0.20;99.90;;;;;;5094425;28;20661;-68
2021/03/23 04:06:31;;;;;;;11.57;8.60;;;0.10;99.90;;;;;;5094242;28;20235;-68
2021/03/23 04:08:57;;;;;;;12.30;8.60;;;0.10;99.90;;;;;;5094246;28;20250;-67
2021/03/23 04:11:23;;;;;;;15.73;9.23;;;0.10;99.90;;;;;;5093140;28;20173;-68
2021/03/23 04:13:48;;;;;;;12.27;9.07;;;0.00;99.90;;;;;;5094083;28;20202;-68
2021/03/23 04:16:14;;;;;;;22.80;11.80;;;0.00;99.90;;;;;;5094440;28;20180;-68
2021/03/23 04:18:40;;;;;;;17.80;10.90;;;0.00;99.90;;;;;;5094194;28;20192;-68
2021/03/23 04:21:06;;;;;;;29.40;13.20;;;-0.10;99.90;;;;;;5094113;28;20176;-68
2021/03/23 04:23:38;;;;;;;23.77;12.82;;;-0.10;99.90;;;;;;5094118;28;20677;-67
2021/03/23 04:26:06;;;;;;;23.15;12.60;;;-0.10;99.90;;;;;;5094192;28;20208;-66
2021/03/23 04:28:31;;;;;;;18.38;12.05;;;-0.10;99.90;;;;;;5092666;28;20201;-67
2021/03/23 04:30:57;;;;;;;17.70;10.50;;;-0.10;99.90;;;;;;5094167;28;20648;-68
2021/03/23 04:33:25;;;;;;;15.68;10.63;;;-0.20;99.90;;;;;;5093915;28;20197;-67
2021/03/23 04:35:57;;;;;;;17.13;10.10;;;-0.10;99.90;;;;;;5094092;28;20176;-67
2021/03/23 04:38:28;;;;;;;12.63;8.98;;;-0.10;99.90;;;;;;5093931;28;20231;-68
2021/03/23 04:40:54;;;;;;;10.70;8.23;;;-0.20;99.90;;;;;;5094109;28;20175;-68
2021/03/23 04:43:43;;;;;;;13.80;9.23;;;-0.20;99.90;;;;;;5092236;28;20247;-66
2021/03/23 04:46:10;;;;;;;11.00;8.10;;;-0.20;99.90;;;;;;5093879;28;20208;-68
2021/03/23 04:48:36;;;;;;;12.07;8.57;;;-0.20;99.90;;;;;;5092405;28;20600;-67
2021/03/23 04:51:04;;;;;;;15.27;8.52;;;-0.20;99.90;;;;;;5093942;28;20173;-67
2021/03/23 04:53:33;;;;;;;13.32;8.27;;;-0.20;99.90;;;;;;5093646;28;20192;-67
2021/03/23 04:55:59;;;;;;;9.45;8.13;;;-0.20;99.90;;;;;;5093959;28;20215;-68
2021/03/23 04:58:26;;;;;;;11.43;9.50;;;-0.20;99.90;;;;;;5093753;28;20559;-69
2021/03/23 05:00:53;;;;;;;13.05;8.65;;;-0.20;99.90;;;;;;5092404;28;20177;-68
2021/03/23 05:03:31;;;;;;;11.43;8.45;;;-0.20;99.90;;;;;;5093709;28;20658;-67
2021/03/23 05:06:04;;;;;;;14.68;9.15;;;-0.20;99.90;;;;;;5092400;28;20582;-67
2021/03/23 05:08:29;;;;;;;11.88;8.07;;;-0.20;99.90;;;;;;5093569;28;20308;-67
2021/03/23 05:10:56;;;;;;;12.13;8.63;;;-0.10;99.90;;;;;;5095248;28;20259;-67
2021/03/23 05:13:21;;;;;;;13.13;8.65;;;-0.20;99.90;;;;;;5097631;28;20557;-68
2021/03/23 05:15:47;;;;;;;11.63;8.07;;;-0.10;99.90;;;;;;5097710;28;20180;-68
2021/03/23 05:18:13;;;;;;;9.23;7.40;;;0.90;99.90;;;;;;5097482;28;20653;-68
2021/03/23 05:20:39;;;;;;;11.25;8.00;;;2.00;99.90;;;;;;5097609;28;20236;-66
2021/03/23 05:23:05;;;;;;;10.20;7.23;;;2.60;99.90;;;;;;5097501;28;20704;-68
2021/03/23 05:25:30;;;;;;;11.70;7.20;;;3.10;99.90;;;;;;5096729;28;20220;-66
2021/03/23 05:27:56;;;;;;;16.60;9.27;;;3.50;99.90;;;;;;5097326;28;20858;-66
2021/03/23 05:30:22;;;;;;;11.83;8.53;;;3.80;99.90;;;;;;5097372;28;20179;-67
2021/03/23 05:32:48;;;;;;;11.50;8.17;;;4.10;99.90;;;;;;5096675;28;20415;-68
2021/03/23 05:35:16;;;;;;;10.02;7.78;;;4.30;99.90;;;;;;5096092;28;20768;-66
2021/03/23 05:37:42;;;;;;;10.95;8.35;;;4.50;99.90;;;;;;5095783;28;20193;-67
2021/03/23 05:40:09;;;;;;;13.70;8.40;;;4.70;99.90;;;;;;5095358;28;20700;-68
2021/03/23 05:42:39;;;;;;;13.98;8.55;;;4.90;99.90;;;;;;5095955;28;20234;-68
2021/03/23 05:45:27;;;;;;;15.35;10.82;;;5.10;99.90;;;;;;5096569;28;20228;-66
2021/03/23 05:48:20;;;;;;;10.70;8.13;;;5.20;99.90;;;;;;5096468;28;20205;-68
2021/03/23 05:50:58;;;;;;;12.23;8.95;;;5.40;99.90;;;;;;5095535;28;20259;-68
2021/03/23 05:53:42;;;;;;;10.50;7.55;;;5.50;99.90;;;;;;5094629;28;20291;-67
2021/03/23 05:56:09;;;;;;;24.40;11.73;;;5.70;99.90;;;;;;5096281;28;20295;-68
2021/03/23 05:58:46;;;;;;;19.83;12.82;;;5.90;99.90;;;;;;5096741;28;20224;-67
2021/03/23 06:01:21;;;;;;;21.70;12.15;;;5.40;99.90;;;;;;5096230;28;20270;-68
2021/03/23 06:03:57;;;;;;;15.27;10.05;;;4.70;99.30;;;;;;5095781;28;20565;-66
2021/03/23 06:06:31;;;;;;;13.68;9.77;;;4.30;97.50;;;;;;5095854;28;20295;-68
2021/03/23 06:08:57;;;;;;;14.70;9.73;;;4.10;98.30;;;;;;5096502;28;20207;-66
2021/03/23 06:11:34;;;;;;;14.97;9.47;;;4.10;98.00;;;;;;5094406;28;21017;-67
2021/03/23 06:14:09;;;;;;;16.25;8.90;;;4.10;98.00;;;;;;5095030;28;20208;-66
2021/03/23 06:16:45;;;;;;;12.93;8.65;;;3.90;97.90;;;;;;5094409;28;20180;-66
2021/03/23 06:19:24;;;;;;;11.40;8.40;;;3.40;98.50;;;;;;5090436;28;20200;-68
2021/03/23 06:22:08;;;;;;;9.93;7.40;;;3.10;99.50;;;;;;5092169;28;20238;-68
2021/03/23 06:24:41;;;;;;;11.43;8.45;;;3.00;99.90;;;;;;5093777;28;20433;-65
2021/03/23 06:27:31;;;;;;;14.50;9.48;;;3.10;99.90;;;;;;5094523;28;20653;-65
2021/03/23 06:30:42;;;;;;;10.52;9.43;;;3.20;99.90;;;;;;5088501;28;20207;-68
2021/03/23 06:33:15;;;;;;;16.00;9.45;;;3.30;99.90;;;;;;5077440;28;20220;-68
2021/03/23 06:35:46;;;;;;;14.27;9.35;;;3.30;99.90;;;;;;5092097;28;20191;-66
2021/03/23 06:38:40;;;;;;;12.07;8.65;;;3.40;99.90;;;;;;5094748;28;20211;-66
2021/03/23 06:41:25;;;;;;;11.65;8.38;;;3.50;99.90;;;;;;5088031;28;20207;-66
2021/03/23 06:44:18;;;;;;;13.00;8.85;;;3.70;99.90;;;;;;5093638;28;20240;-67
2021/03/23 06:46:49;;;;;;;11.80;8.45;;;3.80;99.90;;;;;;5095644;28;20229;-66
2021/03/23 06:49:15;;;;;;;14.07;9.15;;;4.00;99.90;;;;;;5094375;28;20325;-66
2021/03/23 06:52:01;;;;;;;12.27;8.23;;;4.10;99.90;;;;;;5094606;28;20656;-66
2021/03/23 06:54:28;;;;;;;7.63;6.35;;;4.30;99.90;;;;;;5095813;28;20703;-64
2021/03/23 06:57:08;;;;;;;15.05;9.70;;;4.40;99.30;;;;;;5095758;28;20716;-66
2021/03/23 06:59:44;;;;;;;12.93;9.00;;;4.50;99.70;;;;;;5095392;28;20685;-66
2021/03/23 07:02:33;;;;;;;11.63;9.45;;;4.60;99.40;;;;;;5092991;28;20176;-68
2021/03/23 07:05:17;;;;;;;10.30;8.00;;;4.80;99.60;;;;;;5093634;28;20199;-69
2021/03/23 07:07:50;;;;;;;10.30;8.27;;;4.90;99.10;;;;;;5093495;28;20295;-68
2021/03/23 07:10:22;;;;;;;13.50;8.50;;;5.00;98.80;;;;;;5092111;28;20203;-68
2021/03/23 07:12:50;;;;;;;12.60;9.15;;;5.20;98.60;;;;;;5083742;28;20192;-66
2021/03/23 07:15:24;;;;;;;11.45;8.57;;;5.30;98.80;;;;;;5087111;28;20692;-68
2021/03/23 07:18:15;;;;;;;12.00;8.55;;;5.50;97.70;;;;;;5093752;28;20196;-65
2021/03/23 07:20:48;;;;;;;10.63;7.70;;;5.60;97.20;;;;;;5087434;28;20283;-66
2021/03/23 07:23:37;;;;;;;11.77;8.00;;;5.80;97.00;;;;;;5092347;28;20207;-68
2021/03/23 07:26:28;;;;;;;11.18;7.80;;;5.90;97.00;;;;;;5093578;28;20220;-66
2021/03/23 07:29:21;;;;;;;8.75;6.90;;;6.10;94.90;;;;;;5094980;28;20204;-66
2021/03/23 07:32:14;;;;;;;7.97;6.68;;;6.40;94.40;;;;;;5093390;28;20195;-68
2021/03/23 07:34:48;;;;;;;9.30;7.65;;;6.70;94.80;;;;;;5092289;28;20215;-65
2021/03/23 07:37:39;;;;;;;8.07;6.75;;;7.00;94.20;;;;;;5093412;28;20679;-66
2021/03/23 07:40:14;;;;;;;11.35;9.25;;;7.20;94.70;;;;;;5081992;28;20189;-66
2021/03/23 07:43:00;;;;;;;17.13;8.30;;;7.40;94.70;;;;;;5093961;28;20187;-68
2021/03/23 07:45:33;;;;;;;11.02;6.40;;;7.80;92.20;;;;;;5091250;28;20396;-66
2021/03/23 07:48:08;;;;;;;7.70;6.40;;;8.10;91.50;;;;;;5092336;28;20288;-66
2021/03/23 07:50:37;;;;;;;11.35;6.40;;;8.30;91.10;;;;;;5089995;28;20700;-68
2021/03/23 07:53:37;;;;;;;5.70;4.72;;;8.40;89.20;;;;;;5092007;28;20208;-66
2021/03/23 07:56:25;;;;;;;7.10;5.97;;;8.60;86.40;;;;;;5082581;28;20192;-69
2021/03/23 07:59:00;;;;;;;8.40;7.05;;;8.50;87.20;;;;;;5091097;28;20220;-69
2021/03/23 08:01:39;;;;;;;11.57;8.40;;;8.90;86.30;;;;;;5094655;28;20629;-66
2021/03/23 08:04:19;;;;;;;7.57;6.00;;;9.10;83.50;;;;;;5093785;28;20196;-68
2021/03/23 08:06:47;;;;;;;9.57;5.70;;;9.20;82.60;;;;;;5091852;28;20369;-68
2021/03/23 08:09:49;;;;;;;6.03;5.43;;;9.10;81.30;;;;;;5093114;28;20239;-66
2021/03/23 08:12:52;;;;;;;9.52;5.80;;;8.80;82.80;;;;;;5094773;28;20248;-66
2021/03/23 08:15:17;;;;;;;6.10;5.00;;;8.90;81.80;;;;;;5093790;28;20183;-64
2021/03/23 08:18:07;;;;;;;8.60;5.20;;;8.70;80.20;;;;;;5093372;28;20267;-63
2021/03/23 08:20:57;;;;;;;5.82;4.90;;;8.70;80.80;;;;;;5094121;28;20192;-64
2021/03/23 08:23:47;;;;;;;6.10;4.28;;;9.10;78.70;;;;;;5092621;28;20208;-66
2021/03/23 08:26:30;;;;;;;7.53;5.40;;;9.00;79.20;;;;;;5094137;28;20220;-68
2021/03/23 08:29:35;;;;;;;6.20;4.75;;;9.10;77.80;;;;;;5073545;28;20580;-67
2021/03/23 08:32:18;;;;;;;6.55;5.20;;;9.40;78.80;;;;;;5085316;28;20194;-68
2021/03/23 08:35:06;;;;;;;6.95;5.68;;;9.50;76.90;;;;;;5093740;28;20226;-67
2021/03/23 08:37:59;;;;;;;8.25;5.93;;;9.20;76.10;;;;;;5090813;28;20180;-66
2021/03/23 08:40:35;;;;;;;7.40;5.40;;;9.00;76.80;;;;;;5091596;28;20188;-68
2021/03/23 08:43:00;;;;;;;8.13;6.03;;;9.20;76.80;;;;;;5092156;28;20207;-66
2021/03/23 08:45:31;;;;;;;7.70;5.60;;;9.00;76.00;;;;;;5091641;28;20229;-68
2021/03/23 08:48:15;;;;;;;6.72;5.30;;;9.10;77.20;;;;;;5092013;28;20981;-68
2021/03/23 08:50:44;;;;;;;6.05;5.43;;;9.70;78.30;;;;;;5090687;28;20548;-69
2021/03/23 08:53:28;;;;;;;7.57;6.20;;;10.40;75.90;;;;;;5092404;28;20282;-67
2021/03/23 08:55:55;;;;;;;7.95;5.53;;;10.80;75.10;;;;;;5092609;28;20188;-67
2021/03/23 08:58:49;;;;;;;7.70;6.10;;;11.50;73.00;;;;;;5092461;28;20200;-67
2021/03/23 09:01:39;;;;;;;9.70;7.22;;;11.90;71.40;;;;;;5092661;28;20180;-67
2021/03/23 09:04:11;;;;;;;7.07;5.60;;;12.10;71.10;;;;;;5092344;28;20236;-67
2021/03/23 09:07:09;;;;;;;8.17;5.60;;;12.40;69.00;;;;;;5093690;28;20497;-67
2021/03/23 09:09:38;;;;;;;7.03;6.03;;;12.80;67.00;;;;;;5078660;28;20429;-69
2021/03/23 09:12:04;;;;;;;5.50;5.00;;;13.40;66.00;;;;;;5092304;28;21052;-67
2021/03/23 09:14:33;;;;;;;7.93;5.93;;;13.50;65.80;;;;;;5093076;28;20475;-69
2021/03/23 09:16:58;;;;;;;9.53;6.07;;;13.70;63.80;;;;;;5083914;28;20169;-66
2021/03/23 09:19:44;;;;;;;5.83;4.77;;;13.80;63.40;;;;;;5091409;28;20494;-69
2021/03/23 09:22:33;;;;;;;6.93;5.50;;;13.80;62.40;;;;;;5090036;28;20543;-69
2021/03/23 09:25:23;;;;;;;5.83;5.23;;;13.90;61.80;;;;;;5089262;28;20430;-66
2021/03/23 09:27:49;;;;;;;5.43;4.80;;;13.90;62.10;;;;;;5089605;28;20456;-66
2021/03/23 09:30:54;;;;;;;7.60;5.70;;;14.20;61.90;;;;;;5088505;28;20943;-65
2021/03/23 09:33:23;;;;;;;8.63;5.70;;;14.30;59.80;;;;;;5067248;28;20679;-65
2021/03/23 09:36:14;;;;;;;6.20;5.60;;;13.60;59.80;;;;;;5088618;28;20444;-66
2021/03/23 09:38:52;;;;;;;6.33;4.90;;;13.40;60.80;;;;;;5086950;28;20453;-66
2021/03/23 09:41:20;;;;;;;8.00;5.63;;;13.70;60.50;;;;;;5088650;28;20428;-67
2021/03/23 09:43:48;;;;;;;6.30;5.53;;;13.50;59.70;;;;;;5083386;28;20571;-66
2021/03/23 09:46:23;;;;;;;9.20;7.10;;;13.00;59.20;;;;;;5090016;28;20476;-69
2021/03/23 09:48:54;;;;;;;6.80;5.33;;;13.30;60.30;;;;;;5089141;28;20543;-67
2021/03/23 09:51:20;;;;;;;7.57;5.40;;;13.60;60.80;;;;;;5091812;28;20433;-68
2021/03/23 09:53:45;;;;;;;9.90;7.33;;;13.20;59.60;;;;;;5091350;28;20440;-66
2021/03/23 09:56:20;;;;;;;19.37;13.70;;;12.40;59.80;;;;;;5089573;28;20181;-66
2021/03/23 09:58:46;;;;;;;5.97;4.80;;;12.30;60.20;;;;;;5094117;28;20208;-66
2021/03/23 10:01:22;;;;;;;5.13;4.47;;;13.80;61.10;;;;;;5094746;28;20439;-70
2021/03/23 10:03:50;;;;;;;5.70;4.50;;;13.50;58.50;;;;;;5096167;28;20807;-68
2021/03/23 10:06:26;;;;;;;6.00;5.13;;;13.10;59.50;;;;;;5095237;28;20472;-67
2021/03/23 10:08:59;;;;;;;6.07;5.47;;;12.70;59.40;;;;;;5095366;28;20519;-67
2021/03/23 10:11:45;;;;;;;5.30;4.80;;;12.80;60.60;;;;;;5092944;28;20440;-67
2021/03/23 10:14:40;;;;;;;6.63;5.80;;;12.70;60.80;;;;;;5112396;28;20436;-69
2021/03/23 10:17:14;;;;;;;5.23;4.73;;;12.30;59.70;;;;;;5088722;28;20445;-68
2021/03/23 10:19:48;;;;;;;6.17;4.93;;;12.30;60.80;;;;;;5083773;28;20446;-67
2021/03/23 10:22:16;;;;;;;8.00;7.17;;;12.50;61.80;;;;;;5093219;28;20500;-69
2021/03/23 10:24:45;;;;;;;22.03;13.43;;;12.40;61.00;;;;;;5099696;28;20451;-68
2021/03/23 10:27:14;;;;;;;33.10;23.07;;;12.50;61.00;;;;;;5088185;28;20922;-66
2021/03/23 10:30:00;;;;;;;7.30;6.60;;;12.60;60.10;;;;;;5091317;28;20448;-66
2021/03/23 10:32:35;;;;;;;18.03;13.00;;;12.60;61.20;;;;;;5091822;28;20409;-67
2021/03/23 10:35:12;;;;;;;9.87;8.83;;;12.40;60.50;;;;;;5091009;28;20499;-69
2021/03/23 10:37:38;;;;;;;9.10;7.80;;;12.60;61.50;;;;;;5082518;28;20436;-69
2021/03/23 10:40:07;;;;;;;5.40;4.90;;;12.70;60.10;;;;;;5088326;28;20413;-66
2021/03/23 10:42:34;;;;;;;7.33;6.63;;;12.70;60.20;;;;;;5084399;28;20845;-68
2021/03/23 10:45:25;;;;;;;8.17;5.70;;;12.70;61.30;;;;;;5089853;28;20492;-69
2021/03/23 10:48:02;;;;;;;8.17;6.07;;;12.20;59.60;;;;;;5094381;28;20966;-66
2021/03/23 10:50:30;;;;;;;6.37;5.00;;;12.60;60.70;;;;;;5092234;28;20528;-66
2021/03/23 10:53:20;;;;;;;5.50;5.00;;;12.50;60.10;;;;;;5093144;28;20445;-67
2021/03/23 10:55:48;;;;;;;6.03;5.30;;;12.80;60.10;;;;;;5089746;28;20449;-66
2021/03/23 10:58:22;;;;;;;7.07;5.10;;;12.90;59.40;;;;;;5094134;28;20444;-67
2021/03/23 11:01:10;;;;;;;4.60;4.10;;;12.90;61.30;;;;;;5088397;28;20997;-68
2021/03/23 11:03:40;;;;;;;5.00;4.60;;;13.00;59.10;;;;;;5095297;28;20958;-66
2021/03/23 11:06:05;;;;;;;5.47;4.87;;;12.80;59.30;;;;;;5090308;28;20484;-69
2021/03/23 11:08:31;;;;;;;10.40;6.80;;;12.50;59.30;;;;;;5085591;28;20798;-66
2021/03/23 11:10:59;;;;;;;9.07;5.60;;;12.30;59.70;;;;;;5084636;28;20192;-66
2021/03/23 11:13:25;;;;;;;9.83;5.30;;;12.20;61.40;;;;;;5081726;28;20426;-67
2021/03/23 11:15:53;;;;;;;6.90;5.47;;;12.10;59.80;;;;;;5079654;28;20910;-66
2021/03/23 11:18:39;;;;;;;6.70;6.00;;;12.00;59.50;;;;;;5092445;28;20811;-68
2021/03/23 11:21:10;;;;;;;6.53;5.93;;;11.50;60.10;;;;;;5082717;28;20440;-69
2021/03/23 11:23:42;;;;;;;7.10;6.40;;;11.40;60.60;;;;;;5081085;28;20449;-68
2021/03/23 11:26:12;;;;;;;7.60;5.57;;;11.30;60.80;;;;;;5085180;28;20530;-68
2021/03/23 11:28:38;;;;;;;5.47;4.93;;;11.10;61.00;;;;;;5106517;28;20453;-68
2021/03/23 11:31:05;;;;;;;8.03;6.80;;;10.90;61.00;;;;;;5090585;28;20441;-68
2021/03/23 11:33:32;;;;;;;7.83;6.13;;;11.00;62.30;;;;;;5085511;28;20479;-66
2021/03/23 11:35:58;;;;;;;7.10;5.60;;;11.00;62.30;;;;;;5087964;28;20468;-68
2021/03/23 11:38:24;;;;;;;6.68;5.97;;;11.20;62.40;;;;;;5085266;28;20466;-66
2021/03/23 11:40:53;;;;;;;6.15;5.47;;;11.10;61.60;;;;;;5089257;28;20187;-68
2021/03/23 11:43:25;;;;;;;6.53;5.82;;;11.10;61.50;;;;;;5089045;28;20228;-68
2021/03/23 11:45:53;;;;;;;6.60;5.80;;;11.10;62.20;;;;;;5082741;28;20234;-68
2021/03/23 11:48:21;;;;;;;6.95;5.80;;;11.20;61.30;;;;;;5090355;28;20315;-66
2021/03/23 11:50:50;;;;;;;6.83;5.70;;;11.30;62.30;;;;;;5087877;28;20580;-68
2021/03/23 11:53:17;;;;;;;7.60;5.85;;;11.50;62.60;;;;;;5086243;28;20474;-67
2021/03/23 11:55:46;;;;;;;6.68;5.57;;;11.50;62.30;;;;;;5090144;28;20253;-69
2021/03/23 11:58:13;;;;;;;6.10;5.50;;;11.90;63.00;;;;;;5087575;28;20239;-68
2021/03/23 12:00:39;;;;;;;6.83;4.97;;;12.00;61.40;;;;;;5100124;28;20521;-66
2021/03/23 12:03:09;;;;;;;5.83;4.20;;;12.30;61.20;;;;;;5088374;28;20443;-66
2021/03/23 12:05:36;;;;;;;4.90;4.40;;;12.50;60.10;;;;;;5083111;28;20569;-68
2021/03/23 12:08:32;;;;;;;6.60;4.60;;;12.90;60.10;;;;;;5099434;28;20456;-66
2021/03/23 12:11:16;;;;;;;5.10;4.60;;;13.50;58.90;;;;;;5097012;28;20854;-69
2021/03/23 12:13:51;;;;;;;5.10;4.60;;;13.70;58.00;;;;;;5102253;28;20432;-68
2021/03/23 12:16:31;;;;;;;5.60;4.13;;;13.60;58.30;;;;;;5083971;28;20843;-66
2021/03/23 12:19:01;;;;;;;7.10;4.40;;;13.90;58.60;;;;;;5085076;28;20812;-66
2021/03/23 12:21:28;;;;;;;9.47;5.00;;;14.10;57.00;;;;;;5085262;28;20525;-66
2021/03/23 12:23:54;;;;;;;4.73;4.23;;;13.50;57.80;;;;;;5086627;28;20456;-68
2021/03/23 12:26:20;;;;;;;6.40;5.80;;;13.30;57.80;;;;;;5088348;28;20833;-67
2021/03/23 12:28:46;;;;;;;6.63;4.93;;;13.10;58.10;;;;;;5090724;28;20522;-68
2021/03/23 12:31:12;;;;;;;9.50;5.20;;;12.50;58.20;;;;;;5091110;28;20958;-68
2021/03/23 12:33:39;;;;;;;6.37;5.77;;;12.40;59.00;;;;;;5078576;28;20201;-66
2021/03/23 12:36:06;;;;;;;6.07;5.47;;;12.40;59.20;;;;;;5076453;28;20965;-66
2021/03/23 12:38:33;;;;;;;12.80;6.30;;;12.40;59.60;;;;;;5082795;28;20445;-68
2021/03/23 12:40:58;;;;;;;7.60;5.60;;;12.00;60.00;;;;;;5083738;28;20435;-67
2021/03/23 12:43:26;;;;;;;9.10;5.80;;;11.90;60.50;;;;;;5087430;28;20803;-69
2021/03/23 12:45:53;;;;;;;11.00;5.70;;;11.80;60.20;;;;;;5087103;28;20219;-66
2021/03/23 12:48:19;;;;;;;5.97;5.37;;;11.80;59.20;;;;;;5090935;28;20417;-68
2021/03/23 12:50:44;;;;;;;7.60;5.53;;;11.60;59.60;;;;;;5090486;28;20420;-66
2021/03/23 12:53:15;;;;;;;6.33;5.73;;;11.50;58.80;;;;;;5090371;28;20188;-66
2021/03/23 12:55:44;;;;;;;5.93;5.32;;;11.50;58.50;;;;;;5091515;28;20594;-67
2021/03/23 12:58:15;;;;;;;7.05;5.40;;;11.20;58.40;;;;;;5092717;28;20188;-66
2021/03/23 13:00:41;;;;;;;6.45;5.15;;;11.30;58.90;;;;;;5090250;28;20638;-67
2021/03/23 13:03:14;;;;;;;7.10;6.40;;;11.30;59.00;;;;;;5092786;28;20192;-68
2021/03/23 13:05:40;;;;;;;7.20;6.55;;;11.80;59.50;;;;;;5091300;28;20695;-67
2021/03/23 13:08:19;;;;;;;7.50;6.80;;;11.80;58.60;;;;;;5091468;28;20196;-66
2021/03/23 13:10:47;;;;;;;7.28;6.57;;;11.60;57.80;;;;;;5091726;28;20529;-69
2021/03/23 13:13:24;;;;;;;8.18;5.95;;;11.40;57.90;;;;;;5091153;28;20192;-67